sensor_id;sensor_type;location;lat;lon;timestamp;P1;durP1;ratioP1;P2;durP2;ratioP2
77248;SDS011;66280;45.124;20.718;2023-06-14T00:08:08;6.55;;;4.25;;
77248;SDS011;66280;45.124;20.718;2023-06-14T00:18:09;7.83;;;4.83;;
77248;SDS011;66280;45.124;20.718;2023-06-14T00:28:09;7.90;;;4.60;;
77248;SDS011;66280;45.124;20.718;2023-06-14T00:38:10;6.73;;;4.50;;
77248;SDS011;66280;45.124;20.718;2023-06-14T00:48:11;5.73;;;4.10;;
77248;SDS011;66280;45.124;20.718;2023-06-14T00:58:13;11.25;;;5.03;;
77248;SDS011;66280;45.124;20.718;2023-06-14T01:08:21;8.50;;;4.20;;
77248;SDS011;66280;45.124;20.718;2023-06-14T01:18:28;6.97;;;3.97;;
77248;SDS011;66280;45.124;20.718;2023-06-14T01:28:29;6.07;;;4.00;;
77248;SDS011;66280;45.124;20.718;2023-06-14T01:38:30;5.83;;;4.10;;
77248;SDS011;66280;45.124;20.718;2023-06-14T01:48:32;6.50;;;3.87;;
77248;SDS011;66280;45.124;20.718;2023-06-14T01:58:33;4.05;;;3.50;;
77248;SDS011;66280;45.124;20.718;2023-06-14T02:08:33;7.87;;;3.60;;
77248;SDS011;66280;45.124;20.718;2023-06-14T02:18:34;5.20;;;3.63;;
77248;SDS011;66280;45.124;20.718;2023-06-14T02:28:36;9.47;;;3.80;;
77248;SDS011;66280;45.124;20.718;2023-06-14T02:38:37;5.65;;;3.75;;
77248;SDS011;66280;45.124;20.718;2023-06-14T02:48:37;8.83;;;4.20;;
77248;SDS011;66280;45.124;20.718;2023-06-14T02:58:38;4.93;;;3.43;;
77248;SDS011;66280;45.124;20.718;2023-06-14T03:08:39;5.05;;;3.35;;
77248;SDS011;66280;45.124;20.718;2023-06-14T03:18:48;4.20;;;3.43;;
77248;SDS011;66280;45.124;20.718;2023-06-14T03:28:49;5.00;;;3.27;;
77248;SDS011;66280;45.124;20.718;2023-06-14T03:38:52;5.43;;;3.10;;
77248;SDS011;66280;45.124;20.718;2023-06-14T03:48:53;5.73;;;3.60;;
77248;SDS011;66280;45.124;20.718;2023-06-14T03:58:54;5.10;;;3.30;;
77248;SDS011;66280;45.124;20.718;2023-06-14T04:08:58;6.40;;;3.60;;
77248;SDS011;66280;45.124;20.718;2023-06-14T04:19:02;6.67;;;3.60;;
77248;SDS011;66280;45.124;20.718;2023-06-14T04:29:03;3.23;;;2.63;;
77248;SDS011;66280;45.124;20.718;2023-06-14T04:39:06;6.60;;;3.75;;
77248;SDS011;66280;45.124;20.718;2023-06-14T04:49:06;4.83;;;3.40;;
77248;SDS011;66280;45.124;20.718;2023-06-14T04:59:07;4.03;;;3.73;;
77248;SDS011;66280;45.124;20.718;2023-06-14T05:09:08;4.73;;;4.23;;
77248;SDS011;66280;45.124;20.718;2023-06-14T05:19:09;3.90;;;3.50;;
77248;SDS011;66280;45.124;20.718;2023-06-14T05:29:10;5.40;;;3.80;;
77248;SDS011;66280;45.124;20.718;2023-06-14T05:49:11;5.20;;;3.65;;
77248;SDS011;66280;45.124;20.718;2023-06-14T05:59:11;7.45;;;3.60;;
77248;SDS011;66280;45.124;20.718;2023-06-14T06:09:12;7.43;;;4.22;;
77248;SDS011;66280;45.124;20.718;2023-06-14T06:19:12;5.43;;;4.05;;
77248;SDS011;66280;45.124;20.718;2023-06-14T06:29:13;13.53;;;4.17;;
77248;SDS011;66280;45.124;20.718;2023-06-14T06:49:20;4.87;;;4.27;;
77248;SDS011;66280;45.124;20.718;2023-06-14T06:59:21;5.73;;;4.50;;
77248;SDS011;66280;45.124;20.718;2023-06-14T07:09:22;6.27;;;4.10;;
77248;SDS011;66280;45.124;20.718;2023-06-14T07:19:22;5.57;;;4.30;;
77248;SDS011;66280;45.124;20.718;2023-06-14T07:29:23;5.43;;;4.43;;
77248;SDS011;66280;45.124;20.718;2023-06-14T07:39:23;4.38;;;3.97;;
77248;SDS011;66280;45.124;20.718;2023-06-14T07:49:24;4.20;;;3.80;;
77248;SDS011;66280;45.124;20.718;2023-06-14T07:59:25;4.47;;;4.10;;
77248;SDS011;66280;45.124;20.718;2023-06-14T08:09:25;4.25;;;3.95;;
77248;SDS011;66280;45.124;20.718;2023-06-14T08:19:26;3.60;;;3.30;;
77248;SDS011;66280;45.124;20.718;2023-06-14T08:29:26;3.95;;;3.65;;
77248;SDS011;66280;45.124;20.718;2023-06-14T08:39:27;3.92;;;3.50;;
77248;SDS011;66280;45.124;20.718;2023-06-14T08:49:28;4.77;;;4.37;;
77248;SDS011;66280;45.124;20.718;2023-06-14T08:59:29;3.95;;;3.58;;
77248;SDS011;66280;45.124;20.718;2023-06-14T09:09:30;5.20;;;4.70;;
77248;SDS011;66280;45.124;20.718;2023-06-14T09:19:30;3.72;;;3.47;;
77248;SDS011;66280;45.124;20.718;2023-06-14T09:29:31;4.07;;;3.70;;
77248;SDS011;66280;45.124;20.718;2023-06-14T09:39:32;4.23;;;3.83;;
77248;SDS011;66280;45.124;20.718;2023-06-14T09:49:32;5.03;;;4.25;;
77248;SDS011;66280;45.124;20.718;2023-06-14T09:59:33;5.90;;;4.88;;
77248;SDS011;66280;45.124;20.718;2023-06-14T10:09:34;5.60;;;4.33;;
77248;SDS011;66280;45.124;20.718;2023-06-14T10:19:42;4.23;;;3.80;;
77248;SDS011;66280;45.124;20.718;2023-06-14T10:30:10;4.93;;;4.53;;
77248;SDS011;66280;45.124;20.718;2023-06-14T10:40:10;4.03;;;3.73;;
77248;SDS011;66280;45.124;20.718;2023-06-14T10:50:30;7.20;;;4.83;;
77248;SDS011;66280;45.124;20.718;2023-06-14T11:00:31;4.70;;;4.18;;
77248;SDS011;66280;45.124;20.718;2023-06-14T11:10:40;4.47;;;3.67;;
77248;SDS011;66280;45.124;20.718;2023-06-14T11:20:42;5.33;;;4.50;;
77248;SDS011;66280;45.124;20.718;2023-06-14T11:30:42;3.70;;;3.40;;
77248;SDS011;66280;45.124;20.718;2023-06-14T11:40:43;5.22;;;4.18;;
77248;SDS011;66280;45.124;20.718;2023-06-14T11:50:44;5.07;;;4.57;;
77248;SDS011;66280;45.124;20.718;2023-06-14T12:00:44;7.30;;;4.63;;
77248;SDS011;66280;45.124;20.718;2023-06-14T12:10:45;5.17;;;4.50;;
77248;SDS011;66280;45.124;20.718;2023-06-14T12:20:51;4.53;;;4.13;;
77248;SDS011;66280;45.124;20.718;2023-06-14T12:30:52;8.15;;;5.70;;
77248;SDS011;66280;45.124;20.718;2023-06-14T12:40:52;10.30;;;5.17;;
77248;SDS011;66280;45.124;20.718;2023-06-14T12:50:53;10.95;;;5.82;;
77248;SDS011;66280;45.124;20.718;2023-06-14T13:00:54;6.33;;;5.40;;
77248;SDS011;66280;45.124;20.718;2023-06-14T13:10:54;5.93;;;5.40;;
77248;SDS011;66280;45.124;20.718;2023-06-14T13:20:55;6.43;;;5.03;;
77248;SDS011;66280;45.124;20.718;2023-06-14T13:30:55;5.80;;;5.20;;
77248;SDS011;66280;45.124;20.718;2023-06-14T13:40:56;5.75;;;5.22;;
77248;SDS011;66280;45.124;20.718;2023-06-14T13:50:57;5.43;;;4.90;;
77248;SDS011;66280;45.124;20.718;2023-06-14T14:00:59;5.13;;;4.27;;
77248;SDS011;66280;45.124;20.718;2023-06-14T14:11:00;6.20;;;3.40;;
77248;SDS011;66280;45.124;20.718;2023-06-14T14:21:01;3.83;;;3.37;;
77248;SDS011;66280;45.124;20.718;2023-06-14T14:31:01;3.47;;;3.17;;
77248;SDS011;66280;45.124;20.718;2023-06-14T14:41:02;4.50;;;3.30;;
77248;SDS011;66280;45.124;20.718;2023-06-14T14:51:03;3.87;;;3.47;;
77248;SDS011;66280;45.124;20.718;2023-06-14T15:01:03;3.77;;;3.43;;
77248;SDS011;66280;45.124;20.718;2023-06-14T15:11:04;5.93;;;3.65;;
77248;SDS011;66280;45.124;20.718;2023-06-14T15:21:04;11.98;;;3.60;;
77248;SDS011;66280;45.124;20.718;2023-06-14T15:31:05;14.83;;;4.57;;
77248;SDS011;66280;45.124;20.718;2023-06-14T15:41:06;4.80;;;3.30;;
77248;SDS011;66280;45.124;20.718;2023-06-14T15:51:06;10.60;;;4.32;;
77248;SDS011;66280;45.124;20.718;2023-06-14T16:01:07;19.95;;;4.68;;
77248;SDS011;66280;45.124;20.718;2023-06-14T16:11:07;12.20;;;2.70;;
77248;SDS011;66280;45.124;20.718;2023-06-14T16:21:08;7.97;;;3.20;;
77248;SDS011;66280;45.124;20.718;2023-06-14T16:31:09;19.10;;;4.60;;
77248;SDS011;66280;45.124;20.718;2023-06-14T16:41:17;8.60;;;3.72;;
77248;SDS011;66280;45.124;20.718;2023-06-14T16:51:33;8.50;;;2.70;;
77248;SDS011;66280;45.124;20.718;2023-06-14T17:01:34;6.90;;;3.27;;
77248;SDS011;66280;45.124;20.718;2023-06-14T17:11:35;22.37;;;4.77;;
77248;SDS011;66280;45.124;20.718;2023-06-14T17:21:35;8.30;;;4.00;;
77248;SDS011;66280;45.124;20.718;2023-06-14T17:31:36;9.43;;;3.03;;
77248;SDS011;66280;45.124;20.718;2023-06-14T17:41:37;5.63;;;3.83;;
77248;SDS011;66280;45.124;20.718;2023-06-14T17:51:37;6.00;;;3.90;;
77248;SDS011;66280;45.124;20.718;2023-06-14T18:01:38;5.07;;;3.50;;
77248;SDS011;66280;45.124;20.718;2023-06-14T18:11:39;6.17;;;2.90;;
77248;SDS011;66280;45.124;20.718;2023-06-14T18:21:39;3.80;;;2.67;;
77248;SDS011;66280;45.124;20.718;2023-06-14T18:31:40;4.80;;;2.83;;
77248;SDS011;66280;45.124;20.718;2023-06-14T18:41:41;5.63;;;3.90;;
77248;SDS011;66280;45.124;20.718;2023-06-14T18:51:42;12.20;;;7.37;;
77248;SDS011;66280;45.124;20.718;2023-06-14T19:01:42;18.30;;;8.73;;
77248;SDS011;66280;45.124;20.718;2023-06-14T19:11:46;19.30;;;8.90;;
77248;SDS011;66280;45.124;20.718;2023-06-14T19:22:09;12.40;;;6.70;;
77248;SDS011;66280;45.124;20.718;2023-06-14T19:32:20;25.87;;;12.23;;
77248;SDS011;66280;45.124;20.718;2023-06-14T19:42:29;28.40;;;13.43;;
77248;SDS011;66280;45.124;20.718;2023-06-14T19:52:35;17.73;;;8.77;;
77248;SDS011;66280;45.124;20.718;2023-06-14T20:02:40;13.50;;;6.30;;
77248;SDS011;66280;45.124;20.718;2023-06-14T20:12:41;8.95;;;5.13;;
77248;SDS011;66280;45.124;20.718;2023-06-14T20:22:41;6.72;;;4.28;;
77248;SDS011;66280;45.124;20.718;2023-06-14T20:32:42;4.73;;;3.73;;
77248;SDS011;66280;45.124;20.718;2023-06-14T20:42:43;5.20;;;3.40;;
77248;SDS011;66280;45.124;20.718;2023-06-14T20:52:43;5.90;;;3.90;;
77248;SDS011;66280;45.124;20.718;2023-06-14T21:02:44;3.97;;;3.57;;
77248;SDS011;66280;45.124;20.718;2023-06-14T21:12:45;5.63;;;3.30;;
77248;SDS011;66280;45.124;20.718;2023-06-14T21:22:46;4.70;;;3.33;;
77248;SDS011;66280;45.124;20.718;2023-06-14T21:32:47;4.37;;;3.10;;
77248;SDS011;66280;45.124;20.718;2023-06-14T21:42:50;5.57;;;3.80;;
77248;SDS011;66280;45.124;20.718;2023-06-14T21:52:51;6.97;;;3.63;;
77248;SDS011;66280;45.124;20.718;2023-06-14T22:02:51;4.10;;;3.70;;
77248;SDS011;66280;45.124;20.718;2023-06-14T22:12:52;6.45;;;4.03;;
77248;SDS011;66280;45.124;20.718;2023-06-14T22:22:53;6.57;;;3.30;;
77248;SDS011;66280;45.124;20.718;2023-06-14T22:32:53;5.57;;;3.63;;
77248;SDS011;66280;45.124;20.718;2023-06-14T22:42:55;6.47;;;3.60;;
77248;SDS011;66280;45.124;20.718;2023-06-14T22:52:56;5.00;;;3.10;;
77248;SDS011;66280;45.124;20.718;2023-06-14T23:02:57;6.53;;;4.40;;
77248;SDS011;66280;45.124;20.718;2023-06-14T23:12:58;4.50;;;3.72;;
77248;SDS011;66280;45.124;20.718;2023-06-14T23:22:59;4.73;;;3.23;;
77248;SDS011;66280;45.124;20.718;2023-06-14T23:33:00;4.50;;;3.97;;
77248;SDS011;66280;45.124;20.718;2023-06-14T23:43:01;5.88;;;4.75;;
77248;SDS011;66280;45.124;20.718;2023-06-14T23:53:02;8.73;;;4.37;;
